Terminal Aerodrome Forecast
Issued by NWS

Home | Current Version | Previous Version | Text Only | Print | Product List | Glossary On
Versions: 1 2 3 4 5 6 7 8 9 10 11 12 13
000
FTUS45 KCYS 062320
TAFRWL
TAF
KRWL 062320Z 0700/0724 05020G34KT P6SM VCTS BKN080CB
      TEMPO 0700/0703 5SM -TSRA BKN045CB
     FM070400 05013KT 5SM BR OVC045
     FM070700 05011KT 2SM -RA BR OVC025
     FM071500 08013KT P6SM OVC035
     FM072000 08010KT P6SM BKN050
      TEMPO 0720/0724 VRB20G35KT 3SM TSRA BKN035CB=

USA.gov is the U.S. government's official web portal to all federal, state and local government web resources and services.